sensor_id;sensor_type;location;lat;lon;timestamp;P1;durP1;ratioP1;P2;durP2;ratioP2
679;SDS011;322;48.846;9.230;2022-07-29T00:01:38;7.70;;;7.00;;
679;SDS011;322;48.846;9.230;2022-07-29T00:04:05;9.30;;;8.30;;
679;SDS011;322;48.846;9.230;2022-07-29T00:06:32;8.80;;;8.00;;
679;SDS011;322;48.846;9.230;2022-07-29T00:09:00;8.97;;;8.20;;
679;SDS011;322;48.846;9.230;2022-07-29T00:11:27;8.50;;;7.70;;
679;SDS011;322;48.846;9.230;2022-07-29T00:13:54;8.60;;;7.83;;
679;SDS011;322;48.846;9.230;2022-07-29T00:16:21;8.00;;;7.20;;
679;SDS011;322;48.846;9.230;2022-07-29T00:18:48;9.63;;;8.63;;
679;SDS011;322;48.846;9.230;2022-07-29T00:21:15;9.23;;;8.33;;
679;SDS011;322;48.846;9.230;2022-07-29T00:23:41;9.27;;;8.47;;
679;SDS011;322;48.846;9.230;2022-07-29T00:26:10;9.10;;;8.20;;
679;SDS011;322;48.846;9.230;2022-07-29T00:28:36;8.40;;;7.60;;
679;SDS011;322;48.846;9.230;2022-07-29T00:31:03;9.50;;;8.60;;
679;SDS011;322;48.846;9.230;2022-07-29T00:33:30;8.57;;;7.87;;
679;SDS011;322;48.846;9.230;2022-07-29T00:35:57;8.70;;;7.90;;
679;SDS011;322;48.846;9.230;2022-07-29T00:38:23;9.43;;;8.63;;
679;SDS011;322;48.846;9.230;2022-07-29T00:40:49;9.40;;;8.50;;
679;SDS011;322;48.846;9.230;2022-07-29T00:43:17;11.40;;;8.70;;
679;SDS011;322;48.846;9.230;2022-07-29T00:45:45;9.07;;;8.20;;
679;SDS011;322;48.846;9.230;2022-07-29T00:48:12;9.57;;;8.77;;
679;SDS011;322;48.846;9.230;2022-07-29T00:50:39;9.87;;;9.00;;
679;SDS011;322;48.846;9.230;2022-07-29T00:53:06;10.17;;;9.17;;
679;SDS011;322;48.846;9.230;2022-07-29T00:55:34;10.13;;;9.13;;
679;SDS011;322;48.846;9.230;2022-07-29T00:58:01;11.80;;;9.03;;
679;SDS011;322;48.846;9.230;2022-07-29T01:00:29;9.80;;;8.90;;
679;SDS011;322;48.846;9.230;2022-07-29T01:02:56;10.40;;;9.30;;
679;SDS011;322;48.846;9.230;2022-07-29T01:05:24;9.20;;;8.40;;
679;SDS011;322;48.846;9.230;2022-07-29T01:07:54;10.67;;;9.57;;
679;SDS011;322;48.846;9.230;2022-07-29T01:10:22;9.83;;;8.93;;
679;SDS011;322;48.846;9.230;2022-07-29T01:12:51;10.20;;;9.17;;
679;SDS011;322;48.846;9.230;2022-07-29T01:15:19;10.23;;;9.23;;
679;SDS011;322;48.846;9.230;2022-07-29T01:17:50;11.77;;;9.17;;
679;SDS011;322;48.846;9.230;2022-07-29T01:20:25;10.30;;;9.40;;
679;SDS011;322;48.846;9.230;2022-07-29T01:29:12;11.70;;;10.23;;
679;SDS011;322;48.846;9.230;2022-07-29T01:31:44;9.33;;;8.50;;
679;SDS011;322;48.846;9.230;2022-07-29T01:34:16;9.50;;;8.60;;
679;SDS011;322;48.846;9.230;2022-07-29T01:36:48;10.87;;;9.87;;
679;SDS011;322;48.846;9.230;2022-07-29T01:39:22;10.40;;;9.23;;
679;SDS011;322;48.846;9.230;2022-07-29T01:41:55;9.33;;;8.53;;
679;SDS011;322;48.846;9.230;2022-07-29T01:44:30;11.50;;;10.47;;
679;SDS011;322;48.846;9.230;2022-07-29T01:47:01;11.37;;;10.37;;
679;SDS011;322;48.846;9.230;2022-07-29T01:49:32;10.17;;;9.10;;
679;SDS011;322;48.846;9.230;2022-07-29T01:52:03;10.17;;;9.17;;
679;SDS011;322;48.846;9.230;2022-07-29T01:54:35;11.23;;;10.30;;
679;SDS011;322;48.846;9.230;2022-07-29T01:57:08;9.53;;;8.80;;
679;SDS011;322;48.846;9.230;2022-07-29T01:59:38;11.40;;;10.40;;
679;SDS011;322;48.846;9.230;2022-07-29T02:02:06;10.07;;;9.17;;
679;SDS011;322;48.846;9.230;2022-07-29T02:04:35;11.23;;;9.53;;
679;SDS011;322;48.846;9.230;2022-07-29T02:07:05;10.53;;;9.50;;
679;SDS011;322;48.846;9.230;2022-07-29T02:09:35;11.57;;;10.40;;
679;SDS011;322;48.846;9.230;2022-07-29T02:12:05;10.83;;;9.93;;
679;SDS011;322;48.846;9.230;2022-07-29T02:14:35;11.10;;;10.20;;
679;SDS011;322;48.846;9.230;2022-07-29T02:17:05;10.20;;;9.40;;
679;SDS011;322;48.846;9.230;2022-07-29T02:19:32;11.07;;;9.97;;
679;SDS011;322;48.846;9.230;2022-07-29T02:22:02;12.50;;;10.60;;
679;SDS011;322;48.846;9.230;2022-07-29T02:24:31;12.20;;;11.20;;
679;SDS011;322;48.846;9.230;2022-07-29T02:27:01;12.77;;;11.63;;
679;SDS011;322;48.846;9.230;2022-07-29T02:29:30;11.93;;;10.73;;
679;SDS011;322;48.846;9.230;2022-07-29T02:31:59;11.60;;;10.60;;
679;SDS011;322;48.846;9.230;2022-07-29T02:34:28;12.20;;;10.90;;
679;SDS011;322;48.846;9.230;2022-07-29T02:36:56;11.37;;;10.47;;
679;SDS011;322;48.846;9.230;2022-07-29T02:39:23;12.93;;;11.70;;
679;SDS011;322;48.846;9.230;2022-07-29T02:41:52;14.37;;;12.90;;
679;SDS011;322;48.846;9.230;2022-07-29T02:44:24;12.90;;;11.80;;
679;SDS011;322;48.846;9.230;2022-07-29T02:46:52;12.40;;;11.40;;
679;SDS011;322;48.846;9.230;2022-07-29T02:49:29;11.60;;;10.40;;
679;SDS011;322;48.846;9.230;2022-07-29T02:52:01;11.67;;;10.63;;
679;SDS011;322;48.846;9.230;2022-07-29T02:54:31;12.43;;;11.00;;
679;SDS011;322;48.846;9.230;2022-07-29T02:57:03;11.77;;;10.57;;
679;SDS011;322;48.846;9.230;2022-07-29T02:59:35;12.27;;;11.00;;
679;SDS011;322;48.846;9.230;2022-07-29T03:02:04;12.30;;;11.30;;
679;SDS011;322;48.846;9.230;2022-07-29T03:04:33;12.43;;;11.33;;
679;SDS011;322;48.846;9.230;2022-07-29T03:07:01;12.80;;;11.70;;
679;SDS011;322;48.846;9.230;2022-07-29T03:09:29;11.93;;;10.83;;
679;SDS011;322;48.846;9.230;2022-07-29T03:11:56;14.20;;;12.80;;
679;SDS011;322;48.846;9.230;2022-07-29T03:14:23;15.20;;;13.00;;
679;SDS011;322;48.846;9.230;2022-07-29T03:16:51;13.07;;;11.83;;
679;SDS011;322;48.846;9.230;2022-07-29T03:19:19;12.33;;;11.23;;
679;SDS011;322;48.846;9.230;2022-07-29T03:21:47;13.50;;;12.23;;
679;SDS011;322;48.846;9.230;2022-07-29T03:24:24;13.53;;;12.33;;
679;SDS011;322;48.846;9.230;2022-07-29T03:26:55;12.57;;;11.20;;
679;SDS011;322;48.846;9.230;2022-07-29T03:29:23;12.53;;;11.47;;
679;SDS011;322;48.846;9.230;2022-07-29T03:31:50;13.30;;;11.87;;
679;SDS011;322;48.846;9.230;2022-07-29T03:34:17;12.23;;;11.03;;
679;SDS011;322;48.846;9.230;2022-07-29T03:36:44;12.80;;;11.70;;
679;SDS011;322;48.846;9.230;2022-07-29T03:39:13;11.60;;;10.60;;
679;SDS011;322;48.846;9.230;2022-07-29T03:41:47;12.30;;;11.20;;
679;SDS011;322;48.846;9.230;2022-07-29T03:44:16;11.53;;;10.53;;
679;SDS011;322;48.846;9.230;2022-07-29T03:46:43;13.47;;;11.80;;
679;SDS011;322;48.846;9.230;2022-07-29T03:49:11;12.73;;;11.43;;
679;SDS011;322;48.846;9.230;2022-07-29T03:51:40;14.20;;;12.80;;
679;SDS011;322;48.846;9.230;2022-07-29T03:54:08;13.07;;;11.87;;
679;SDS011;322;48.846;9.230;2022-07-29T03:56:37;12.90;;;11.63;;
679;SDS011;322;48.846;9.230;2022-07-29T03:59:06;12.40;;;11.30;;
679;SDS011;322;48.846;9.230;2022-07-29T04:01:34;12.50;;;11.40;;
679;SDS011;322;48.846;9.230;2022-07-29T04:04:02;11.73;;;10.73;;
679;SDS011;322;48.846;9.230;2022-07-29T04:06:36;11.40;;;10.47;;
679;SDS011;322;48.846;9.230;2022-07-29T04:09:04;13.97;;;12.47;;
679;SDS011;322;48.846;9.230;2022-07-29T04:11:31;11.63;;;10.63;;
679;SDS011;322;48.846;9.230;2022-07-29T04:14:00;11.30;;;10.27;;
679;SDS011;322;48.846;9.230;2022-07-29T04:16:27;12.27;;;11.20;;
679;SDS011;322;48.846;9.230;2022-07-29T04:18:53;11.90;;;10.90;;
679;SDS011;322;48.846;9.230;2022-07-29T04:21:20;12.77;;;11.57;;
679;SDS011;322;48.846;9.230;2022-07-29T04:23:47;11.30;;;10.30;;
679;SDS011;322;48.846;9.230;2022-07-29T04:26:15;12.47;;;11.37;;
679;SDS011;322;48.846;9.230;2022-07-29T04:28:41;14.27;;;12.80;;
679;SDS011;322;48.846;9.230;2022-07-29T04:31:10;12.20;;;11.20;;
679;SDS011;322;48.846;9.230;2022-07-29T04:33:37;11.97;;;10.87;;
679;SDS011;322;48.846;9.230;2022-07-29T04:36:05;13.23;;;11.50;;
679;SDS011;322;48.846;9.230;2022-07-29T04:38:31;11.87;;;10.87;;
679;SDS011;322;48.846;9.230;2022-07-29T04:40:58;12.43;;;11.23;;
679;SDS011;322;48.846;9.230;2022-07-29T04:43:25;11.50;;;10.43;;
679;SDS011;322;48.846;9.230;2022-07-29T04:45:52;12.90;;;11.33;;
679;SDS011;322;48.846;9.230;2022-07-29T04:48:20;10.90;;;10.00;;
679;SDS011;322;48.846;9.230;2022-07-29T04:50:47;12.83;;;11.53;;
679;SDS011;322;48.846;9.230;2022-07-29T04:53:14;12.33;;;11.23;;
679;SDS011;322;48.846;9.230;2022-07-29T04:55:40;12.50;;;11.27;;
679;SDS011;322;48.846;9.230;2022-07-29T04:58:07;12.77;;;11.67;;
679;SDS011;322;48.846;9.230;2022-07-29T05:00:34;12.70;;;11.47;;
679;SDS011;322;48.846;9.230;2022-07-29T05:03:01;13.73;;;12.33;;
679;SDS011;322;48.846;9.230;2022-07-29T05:05:29;13.47;;;12.23;;
679;SDS011;322;48.846;9.230;2022-07-29T05:07:56;12.90;;;11.63;;
679;SDS011;322;48.846;9.230;2022-07-29T05:10:23;13.10;;;12.00;;
679;SDS011;322;48.846;9.230;2022-07-29T05:12:50;11.40;;;10.37;;
679;SDS011;322;48.846;9.230;2022-07-29T05:15:17;11.13;;;10.10;;
679;SDS011;322;48.846;9.230;2022-07-29T05:17:44;11.30;;;10.30;;
679;SDS011;322;48.846;9.230;2022-07-29T05:20:11;10.70;;;9.73;;
679;SDS011;322;48.846;9.230;2022-07-29T05:22:39;11.60;;;10.57;;
679;SDS011;322;48.846;9.230;2022-07-29T05:25:06;12.33;;;11.13;;
679;SDS011;322;48.846;9.230;2022-07-29T05:27:34;10.03;;;9.13;;
679;SDS011;322;48.846;9.230;2022-07-29T05:30:02;10.90;;;9.90;;
679;SDS011;322;48.846;9.230;2022-07-29T05:32:29;10.50;;;9.70;;
679;SDS011;322;48.846;9.230;2022-07-29T05:34:56;10.27;;;9.33;;
679;SDS011;322;48.846;9.230;2022-07-29T05:37:22;8.57;;;7.87;;
679;SDS011;322;48.846;9.230;2022-07-29T05:39:51;9.20;;;7.43;;
679;SDS011;322;48.846;9.230;2022-07-29T05:42:17;9.17;;;7.90;;
679;SDS011;322;48.846;9.230;2022-07-29T05:44:44;8.23;;;7.50;;
679;SDS011;322;48.846;9.230;2022-07-29T05:47:12;10.43;;;7.63;;
679;SDS011;322;48.846;9.230;2022-07-29T05:49:39;8.80;;;8.00;;
679;SDS011;322;48.846;9.230;2022-07-29T05:52:06;7.87;;;7.13;;
679;SDS011;322;48.846;9.230;2022-07-29T05:54:33;8.60;;;7.77;;
679;SDS011;322;48.846;9.230;2022-07-29T05:57:02;11.50;;;6.90;;
679;SDS011;322;48.846;9.230;2022-07-29T05:59:29;7.10;;;6.50;;
679;SDS011;322;48.846;9.230;2022-07-29T06:01:56;7.50;;;6.73;;
679;SDS011;322;48.846;9.230;2022-07-29T06:04:23;6.70;;;6.10;;
679;SDS011;322;48.846;9.230;2022-07-29T06:06:50;6.90;;;6.33;;
679;SDS011;322;48.846;9.230;2022-07-29T06:09:16;6.60;;;6.10;;
679;SDS011;322;48.846;9.230;2022-07-29T06:11:43;6.43;;;5.73;;
679;SDS011;322;48.846;9.230;2022-07-29T06:14:11;6.57;;;6.03;;
679;SDS011;322;48.846;9.230;2022-07-29T06:16:38;6.10;;;5.33;;
679;SDS011;322;48.846;9.230;2022-07-29T06:19:05;5.43;;;4.93;;
679;SDS011;322;48.846;9.230;2022-07-29T06:21:32;5.30;;;4.83;;
679;SDS011;322;48.846;9.230;2022-07-29T06:23:59;5.23;;;4.73;;
679;SDS011;322;48.846;9.230;2022-07-29T06:26:26;5.30;;;4.50;;
679;SDS011;322;48.846;9.230;2022-07-29T06:28:53;5.33;;;4.83;;
679;SDS011;322;48.846;9.230;2022-07-29T06:31:22;4.40;;;4.00;;
679;SDS011;322;48.846;9.230;2022-07-29T06:33:48;6.53;;;4.37;;
679;SDS011;322;48.846;9.230;2022-07-29T06:36:15;5.37;;;4.47;;
679;SDS011;322;48.846;9.230;2022-07-29T06:38:42;6.30;;;4.87;;
679;SDS011;322;48.846;9.230;2022-07-29T06:41:09;5.17;;;4.30;;
679;SDS011;322;48.846;9.230;2022-07-29T06:43:37;5.87;;;4.63;;
679;SDS011;322;48.846;9.230;2022-07-29T06:46:08;5.17;;;4.60;;
679;SDS011;322;48.846;9.230;2022-07-29T06:48:38;3.90;;;3.37;;
679;SDS011;322;48.846;9.230;2022-07-29T06:51:05;5.47;;;4.30;;
679;SDS011;322;48.846;9.230;2022-07-29T06:53:32;5.13;;;4.73;;
679;SDS011;322;48.846;9.230;2022-07-29T06:56:00;4.20;;;3.80;;
679;SDS011;322;48.846;9.230;2022-07-29T06:58:28;7.50;;;4.40;;
679;SDS011;322;48.846;9.230;2022-07-29T07:00:55;5.27;;;4.53;;
679;SDS011;322;48.846;9.230;2022-07-29T07:03:22;4.47;;;4.07;;
679;SDS011;322;48.846;9.230;2022-07-29T07:05:51;4.40;;;3.73;;
679;SDS011;322;48.846;9.230;2022-07-29T07:08:18;4.27;;;3.87;;
679;SDS011;322;48.846;9.230;2022-07-29T07:10:45;5.93;;;4.20;;
679;SDS011;322;48.846;9.230;2022-07-29T07:13:12;5.03;;;4.50;;
679;SDS011;322;48.846;9.230;2022-07-29T07:15:39;4.50;;;4.10;;
679;SDS011;322;48.846;9.230;2022-07-29T07:18:06;6.47;;;4.70;;
679;SDS011;322;48.846;9.230;2022-07-29T07:20:33;4.20;;;3.80;;
679;SDS011;322;48.846;9.230;2022-07-29T07:23:02;5.50;;;4.20;;
679;SDS011;322;48.846;9.230;2022-07-29T07:25:29;5.00;;;4.50;;
679;SDS011;322;48.846;9.230;2022-07-29T07:27:56;5.23;;;3.90;;
679;SDS011;322;48.846;9.230;2022-07-29T07:30:23;4.70;;;4.17;;
679;SDS011;322;48.846;9.230;2022-07-29T07:32:51;4.73;;;4.07;;
679;SDS011;322;48.846;9.230;2022-07-29T07:35:18;5.03;;;4.63;;
679;SDS011;322;48.846;9.230;2022-07-29T07:37:44;4.73;;;4.10;;
679;SDS011;322;48.846;9.230;2022-07-29T07:40:13;6.13;;;4.60;;
679;SDS011;322;48.846;9.230;2022-07-29T07:42:40;4.70;;;4.20;;
679;SDS011;322;48.846;9.230;2022-07-29T07:45:08;4.80;;;4.30;;
679;SDS011;322;48.846;9.230;2022-07-29T07:47:35;5.20;;;4.00;;
679;SDS011;322;48.846;9.230;2022-07-29T07:50:03;5.83;;;4.13;;
679;SDS011;322;48.846;9.230;2022-07-29T07:52:31;5.43;;;4.70;;
679;SDS011;322;48.846;9.230;2022-07-29T07:54:58;5.47;;;4.40;;
679;SDS011;322;48.846;9.230;2022-07-29T07:57:26;5.40;;;4.40;;
679;SDS011;322;48.846;9.230;2022-07-29T07:59:53;4.60;;;4.20;;
679;SDS011;322;48.846;9.230;2022-07-29T08:02:20;6.05;;;4.38;;
679;SDS011;322;48.846;9.230;2022-07-29T08:04:47;7.50;;;4.73;;
679;SDS011;322;48.846;9.230;2022-07-29T08:07:13;7.00;;;3.90;;
679;SDS011;322;48.846;9.230;2022-07-29T08:09:40;5.90;;;4.87;;
679;SDS011;322;48.846;9.230;2022-07-29T08:12:07;5.60;;;4.63;;
679;SDS011;322;48.846;9.230;2022-07-29T08:14:35;5.63;;;5.13;;
679;SDS011;322;48.846;9.230;2022-07-29T08:17:02;5.27;;;4.37;;
679;SDS011;322;48.846;9.230;2022-07-29T08:19:29;4.60;;;4.20;;
679;SDS011;322;48.846;9.230;2022-07-29T08:21:56;4.93;;;4.53;;
679;SDS011;322;48.846;9.230;2022-07-29T08:24:23;5.37;;;4.20;;
679;SDS011;322;48.846;9.230;2022-07-29T08:27:07;5.00;;;4.50;;
679;SDS011;322;48.846;9.230;2022-07-29T08:29:35;7.00;;;4.70;;
679;SDS011;322;48.846;9.230;2022-07-29T08:32:03;6.17;;;4.73;;
679;SDS011;322;48.846;9.230;2022-07-29T08:34:30;5.57;;;4.50;;
679;SDS011;322;48.846;9.230;2022-07-29T08:36:57;5.47;;;4.93;;
679;SDS011;322;48.846;9.230;2022-07-29T08:39:24;5.90;;;5.30;;
679;SDS011;322;48.846;9.230;2022-07-29T08:41:51;11.47;;;4.93;;
679;SDS011;322;48.846;9.230;2022-07-29T08:44:20;4.87;;;4.07;;
679;SDS011;322;48.846;9.230;2022-07-29T08:46:49;8.53;;;5.27;;
679;SDS011;322;48.846;9.230;2022-07-29T08:49:16;5.83;;;4.47;;
679;SDS011;322;48.846;9.230;2022-07-29T08:51:43;5.73;;;5.00;;
679;SDS011;322;48.846;9.230;2022-07-29T08:54:10;9.40;;;5.80;;
679;SDS011;322;48.846;9.230;2022-07-29T08:56:42;5.60;;;5.10;;
679;SDS011;322;48.846;9.230;2022-07-29T08:59:10;6.77;;;5.83;;
679;SDS011;322;48.846;9.230;2022-07-29T09:01:39;9.37;;;5.43;;
679;SDS011;322;48.846;9.230;2022-07-29T09:04:11;7.07;;;5.87;;
679;SDS011;322;48.846;9.230;2022-07-29T09:06:40;5.80;;;5.23;;
679;SDS011;322;48.846;9.230;2022-07-29T09:09:09;5.87;;;5.37;;
679;SDS011;322;48.846;9.230;2022-07-29T09:11:37;6.13;;;5.47;;
679;SDS011;322;48.846;9.230;2022-07-29T09:14:03;7.47;;;5.53;;
679;SDS011;322;48.846;9.230;2022-07-29T09:16:47;6.47;;;5.03;;
679;SDS011;322;48.846;9.230;2022-07-29T09:19:21;5.97;;;5.10;;
679;SDS011;322;48.846;9.230;2022-07-29T09:21:50;6.97;;;6.07;;
679;SDS011;322;48.846;9.230;2022-07-29T09:24:26;6.80;;;5.80;;
679;SDS011;322;48.846;9.230;2022-07-29T09:27:04;6.63;;;5.10;;
679;SDS011;322;48.846;9.230;2022-07-29T09:29:43;7.63;;;5.60;;
679;SDS011;322;48.846;9.230;2022-07-29T09:32:10;6.50;;;5.57;;
679;SDS011;322;48.846;9.230;2022-07-29T09:34:39;5.83;;;5.10;;
679;SDS011;322;48.846;9.230;2022-07-29T09:37:06;6.30;;;5.70;;
679;SDS011;322;48.846;9.230;2022-07-29T09:39:33;9.57;;;6.50;;
679;SDS011;322;48.846;9.230;2022-07-29T09:42:02;7.43;;;5.47;;
679;SDS011;322;48.846;9.230;2022-07-29T09:44:41;10.30;;;5.73;;
679;SDS011;322;48.846;9.230;2022-07-29T09:47:09;7.17;;;6.47;;
679;SDS011;322;48.846;9.230;2022-07-29T09:49:49;5.93;;;5.30;;
679;SDS011;322;48.846;9.230;2022-07-29T09:52:19;5.80;;;5.30;;
679;SDS011;322;48.846;9.230;2022-07-29T09:54:46;7.37;;;6.23;;
679;SDS011;322;48.846;9.230;2022-07-29T09:57:24;6.63;;;5.30;;
679;SDS011;322;48.846;9.230;2022-07-29T09:59:55;6.40;;;5.83;;
679;SDS011;322;48.846;9.230;2022-07-29T10:02:27;7.00;;;6.03;;
679;SDS011;322;48.846;9.230;2022-07-29T10:04:57;6.57;;;5.87;;
679;SDS011;322;48.846;9.230;2022-07-29T10:07:24;6.90;;;6.20;;
679;SDS011;322;48.846;9.230;2022-07-29T10:09:52;9.60;;;5.17;;
679;SDS011;322;48.846;9.230;2022-07-29T10:12:20;7.67;;;5.70;;
679;SDS011;322;48.846;9.230;2022-07-29T10:14:47;6.30;;;5.70;;
679;SDS011;322;48.846;9.230;2022-07-29T10:17:16;6.73;;;6.03;;
679;SDS011;322;48.846;9.230;2022-07-29T10:19:43;6.73;;;6.13;;
679;SDS011;322;48.846;9.230;2022-07-29T10:22:12;8.87;;;7.20;;
679;SDS011;322;48.846;9.230;2022-07-29T10:24:39;6.70;;;6.00;;
679;SDS011;322;48.846;9.230;2022-07-29T10:27:06;6.93;;;6.23;;
679;SDS011;322;48.846;9.230;2022-07-29T10:29:35;6.50;;;5.90;;
679;SDS011;322;48.846;9.230;2022-07-29T10:32:07;6.80;;;6.20;;
679;SDS011;322;48.846;9.230;2022-07-29T10:35:14;8.37;;;6.33;;
679;SDS011;322;48.846;9.230;2022-07-29T10:37:56;8.30;;;7.13;;
679;SDS011;322;48.846;9.230;2022-07-29T10:40:52;7.07;;;6.30;;
679;SDS011;322;48.846;9.230;2022-07-29T10:43:44;8.80;;;6.47;;
679;SDS011;322;48.846;9.230;2022-07-29T10:46:12;7.43;;;6.70;;
679;SDS011;322;48.846;9.230;2022-07-29T10:51:51;7.70;;;7.03;;
679;SDS011;322;48.846;9.230;2022-07-29T10:54:36;9.07;;;6.57;;
679;SDS011;322;48.846;9.230;2022-07-29T10:57:23;7.30;;;6.57;;
679;SDS011;322;48.846;9.230;2022-07-29T11:02:54;9.80;;;6.40;;
679;SDS011;322;48.846;9.230;2022-07-29T11:05:23;8.27;;;6.90;;
679;SDS011;322;48.846;9.230;2022-07-29T11:10:52;7.40;;;6.70;;
679;SDS011;322;48.846;9.230;2022-07-29T11:16:25;7.70;;;7.00;;
679;SDS011;322;48.846;9.230;2022-07-29T11:19:18;8.40;;;7.30;;
679;SDS011;322;48.846;9.230;2022-07-29T11:21:46;8.77;;;8.07;;
679;SDS011;322;48.846;9.230;2022-07-29T11:24:15;8.53;;;7.80;;
679;SDS011;322;48.846;9.230;2022-07-29T11:26:44;8.30;;;7.50;;
679;SDS011;322;48.846;9.230;2022-07-29T11:29:31;9.53;;;8.50;;
679;SDS011;322;48.846;9.230;2022-07-29T11:32:08;9.50;;;8.60;;
679;SDS011;322;48.846;9.230;2022-07-29T11:34:36;9.60;;;8.53;;
679;SDS011;322;48.846;9.230;2022-07-29T11:37:15;12.23;;;10.60;;
679;SDS011;322;48.846;9.230;2022-07-29T11:39:44;12.17;;;10.90;;
679;SDS011;322;48.846;9.230;2022-07-29T11:45:23;12.27;;;10.80;;
679;SDS011;322;48.846;9.230;2022-07-29T11:47:57;12.73;;;11.53;;
679;SDS011;322;48.846;9.230;2022-07-29T11:50:32;13.10;;;11.80;;
679;SDS011;322;48.846;9.230;2022-07-29T11:53:00;13.10;;;12.00;;
679;SDS011;322;48.846;9.230;2022-07-29T11:55:29;10.23;;;9.30;;
679;SDS011;322;48.846;9.230;2022-07-29T11:58:00;10.50;;;9.60;;
679;SDS011;322;48.846;9.230;2022-07-29T12:00:29;8.23;;;7.40;;
679;SDS011;322;48.846;9.230;2022-07-29T12:02:59;8.63;;;7.73;;
679;SDS011;322;48.846;9.230;2022-07-29T12:05:34;8.07;;;7.27;;
679;SDS011;322;48.846;9.230;2022-07-29T12:08:06;8.47;;;7.67;;
679;SDS011;322;48.846;9.230;2022-07-29T12:10:34;6.73;;;6.07;;
679;SDS011;322;48.846;9.230;2022-07-29T12:13:02;7.27;;;6.57;;
679;SDS011;322;48.846;9.230;2022-07-29T12:15:30;8.20;;;6.50;;
679;SDS011;322;48.846;9.230;2022-07-29T12:18:09;5.80;;;5.20;;
679;SDS011;322;48.846;9.230;2022-07-29T12:20:37;10.00;;;5.43;;
679;SDS011;322;48.846;9.230;2022-07-29T12:23:07;9.03;;;4.70;;
679;SDS011;322;48.846;9.230;2022-07-29T12:25:37;6.43;;;5.10;;
679;SDS011;322;48.846;9.230;2022-07-29T12:28:05;5.27;;;4.77;;
679;SDS011;322;48.846;9.230;2022-07-29T12:30:37;4.50;;;3.27;;
679;SDS011;322;48.846;9.230;2022-07-29T12:33:16;6.73;;;4.33;;
679;SDS011;322;48.846;9.230;2022-07-29T12:35:46;6.00;;;3.60;;
679;SDS011;322;48.846;9.230;2022-07-29T12:38:14;5.53;;;3.23;;
679;SDS011;322;48.846;9.230;2022-07-29T12:40:42;5.30;;;3.67;;
679;SDS011;322;48.846;9.230;2022-07-29T12:43:11;5.00;;;4.30;;
679;SDS011;322;48.846;9.230;2022-07-29T12:45:42;5.23;;;3.60;;
679;SDS011;322;48.846;9.230;2022-07-29T12:48:11;4.20;;;3.63;;
679;SDS011;322;48.846;9.230;2022-07-29T12:50:51;4.50;;;4.00;;
679;SDS011;322;48.846;9.230;2022-07-29T12:53:19;4.13;;;3.57;;
679;SDS011;322;48.846;9.230;2022-07-29T12:55:47;5.90;;;4.20;;
679;SDS011;322;48.846;9.230;2022-07-29T12:58:26;4.80;;;3.40;;
679;SDS011;322;48.846;9.230;2022-07-29T13:01:06;6.80;;;4.00;;
679;SDS011;322;48.846;9.230;2022-07-29T13:03:44;5.13;;;3.50;;
679;SDS011;322;48.846;9.230;2022-07-29T13:06:29;4.93;;;3.67;;
679;SDS011;322;48.846;9.230;2022-07-29T13:08:58;4.20;;;3.80;;
679;SDS011;322;48.846;9.230;2022-07-29T13:11:30;6.27;;;3.97;;
679;SDS011;322;48.846;9.230;2022-07-29T13:13:58;5.03;;;4.23;;
679;SDS011;322;48.846;9.230;2022-07-29T13:16:26;5.00;;;4.50;;
679;SDS011;322;48.846;9.230;2022-07-29T13:19:03;5.03;;;4.53;;
679;SDS011;322;48.846;9.230;2022-07-29T13:21:34;7.40;;;4.30;;
679;SDS011;322;48.846;9.230;2022-07-29T13:24:01;5.77;;;4.57;;
679;SDS011;322;48.846;9.230;2022-07-29T13:26:28;6.53;;;4.90;;
679;SDS011;322;48.846;9.230;2022-07-29T13:28:55;6.13;;;5.53;;
679;SDS011;322;48.846;9.230;2022-07-29T13:31:22;6.00;;;5.50;;
679;SDS011;322;48.846;9.230;2022-07-29T13:33:50;6.40;;;5.80;;
679;SDS011;322;48.846;9.230;2022-07-29T13:36:17;8.47;;;6.07;;
679;SDS011;322;48.846;9.230;2022-07-29T13:38:44;7.70;;;6.37;;
679;SDS011;322;48.846;9.230;2022-07-29T13:41:11;8.33;;;7.50;;
679;SDS011;322;48.846;9.230;2022-07-29T13:43:38;8.23;;;7.33;;
679;SDS011;322;48.846;9.230;2022-07-29T13:46:04;8.80;;;7.90;;
679;SDS011;322;48.846;9.230;2022-07-29T13:48:31;13.90;;;8.53;;
679;SDS011;322;48.846;9.230;2022-07-29T13:51:00;9.90;;;8.37;;
679;SDS011;322;48.846;9.230;2022-07-29T13:53:27;9.40;;;8.50;;
679;SDS011;322;48.846;9.230;2022-07-29T13:55:54;9.20;;;8.30;;
679;SDS011;322;48.846;9.230;2022-07-29T13:58:21;9.13;;;8.00;;
679;SDS011;322;48.846;9.230;2022-07-29T14:00:47;8.13;;;7.30;;
679;SDS011;322;48.846;9.230;2022-07-29T14:03:14;8.60;;;7.40;;
679;SDS011;322;48.846;9.230;2022-07-29T14:05:41;8.13;;;7.20;;
679;SDS011;322;48.846;9.230;2022-07-29T14:08:09;7.10;;;6.03;;
679;SDS011;322;48.846;9.230;2022-07-29T14:10:36;7.70;;;6.90;;
679;SDS011;322;48.846;9.230;2022-07-29T14:13:03;9.20;;;7.20;;
679;SDS011;322;48.846;9.230;2022-07-29T14:15:30;7.70;;;7.00;;
679;SDS011;322;48.846;9.230;2022-07-29T14:17:57;8.03;;;7.27;;
679;SDS011;322;48.846;9.230;2022-07-29T14:20:24;8.10;;;7.30;;
679;SDS011;322;48.846;9.230;2022-07-29T14:22:51;7.90;;;7.10;;
679;SDS011;322;48.846;9.230;2022-07-29T14:25:19;7.97;;;7.30;;
679;SDS011;322;48.846;9.230;2022-07-29T14:27:46;7.67;;;6.97;;
679;SDS011;322;48.846;9.230;2022-07-29T14:30:13;10.17;;;7.90;;
679;SDS011;322;48.846;9.230;2022-07-29T14:32:40;8.30;;;7.33;;
679;SDS011;322;48.846;9.230;2022-07-29T14:35:07;8.50;;;7.70;;
679;SDS011;322;48.846;9.230;2022-07-29T14:37:34;9.60;;;8.33;;
679;SDS011;322;48.846;9.230;2022-07-29T14:40:01;9.37;;;8.30;;
679;SDS011;322;48.846;9.230;2022-07-29T14:42:30;7.80;;;7.10;;
679;SDS011;322;48.846;9.230;2022-07-29T14:44:57;9.13;;;8.17;;
679;SDS011;322;48.846;9.230;2022-07-29T14:47:24;10.10;;;7.63;;
679;SDS011;322;48.846;9.230;2022-07-29T14:49:51;9.93;;;7.93;;
679;SDS011;322;48.846;9.230;2022-07-29T14:52:18;9.73;;;8.10;;
679;SDS011;322;48.846;9.230;2022-07-29T14:54:45;9.40;;;8.60;;
679;SDS011;322;48.846;9.230;2022-07-29T14:57:12;9.60;;;8.57;;
679;SDS011;322;48.846;9.230;2022-07-29T14:59:40;9.37;;;8.40;;
679;SDS011;322;48.846;9.230;2022-07-29T15:02:07;10.23;;;9.20;;
679;SDS011;322;48.846;9.230;2022-07-29T15:04:34;9.83;;;8.30;;
679;SDS011;322;48.846;9.230;2022-07-29T15:07:01;8.70;;;8.00;;
679;SDS011;322;48.846;9.230;2022-07-29T15:09:28;9.00;;;8.10;;
679;SDS011;322;48.846;9.230;2022-07-29T15:11:55;9.30;;;8.50;;
679;SDS011;322;48.846;9.230;2022-07-29T15:14:22;9.50;;;7.80;;
679;SDS011;322;48.846;9.230;2022-07-29T15:16:50;10.03;;;8.37;;
679;SDS011;322;48.846;9.230;2022-07-29T15:19:17;8.37;;;7.57;;
679;SDS011;322;48.846;9.230;2022-07-29T15:21:44;9.60;;;8.70;;
679;SDS011;322;48.846;9.230;2022-07-29T15:24:11;9.33;;;7.70;;
679;SDS011;322;48.846;9.230;2022-07-29T15:26:38;8.37;;;7.67;;
679;SDS011;322;48.846;9.230;2022-07-29T15:29:07;10.13;;;7.97;;
679;SDS011;322;48.846;9.230;2022-07-29T15:31:34;7.77;;;6.97;;
679;SDS011;322;48.846;9.230;2022-07-29T15:34:02;7.93;;;7.27;;
679;SDS011;322;48.846;9.230;2022-07-29T15:36:29;10.23;;;7.70;;
679;SDS011;322;48.846;9.230;2022-07-29T15:38:56;8.37;;;7.67;;
679;SDS011;322;48.846;9.230;2022-07-29T15:41:23;8.00;;;7.20;;
679;SDS011;322;48.846;9.230;2022-07-29T15:43:50;11.73;;;7.90;;
679;SDS011;322;48.846;9.230;2022-07-29T15:46:17;8.37;;;7.67;;
679;SDS011;322;48.846;9.230;2022-07-29T15:49:04;9.17;;;7.70;;
679;SDS011;322;48.846;9.230;2022-07-29T15:51:32;8.10;;;7.30;;
679;SDS011;322;48.846;9.230;2022-07-29T15:54:00;8.43;;;7.63;;
679;SDS011;322;48.846;9.230;2022-07-29T15:56:28;9.07;;;8.17;;
679;SDS011;322;48.846;9.230;2022-07-29T15:58:55;8.30;;;7.50;;
679;SDS011;322;48.846;9.230;2022-07-29T16:01:22;8.07;;;6.80;;
679;SDS011;322;48.846;9.230;2022-07-29T16:03:49;8.10;;;7.40;;
679;SDS011;322;48.846;9.230;2022-07-29T16:06:18;9.03;;;8.23;;
679;SDS011;322;48.846;9.230;2022-07-29T16:08:45;9.00;;;8.10;;
679;SDS011;322;48.846;9.230;2022-07-29T16:11:11;10.40;;;8.40;;